Altamont, North Carolina
Current Conditions -  °F | °C
As of 11:35 PM on Wednesday 22 Oct 2014 (Local Time) from KTNB Reporting Station
Broken Clouds Broken Clouds  
Wind Chill: 34°   Ceiling: 2400
Heat Index: 41°   Visibility: 10mi
Dew Point: 34°   Wind: 15mph
Humidity: 75%   Direction: 300°WNW
Pressure: 30.13"   Gusts: 22mph
Location:  36.0227°N, 81.9499°W
Report Text: KTNB 230335Z AUTO 30013G19KT 10SM SCT017 BKN024 05/01 A3013 RMK AO2 T00520011
Loading
Personal Weather Stations






























Interactive Weather Map
Tropical Storm Tracking
New forecast layout! Learn more

10-Day Weather Forecast

Advertisements
Track Severe Weather on mobile